Time;durP1;ratioP1;P1;durP2;ratioP2;P2;SDS_P1;SDS_P2;PMS_P1;PMS_P2;Temp;Humidity;BMP_temperature;BMP_pressure;BME280_temperature;BME280_humidity;BME280_pressure;Samples;Min_cycle;Max_cycle;Signal;HPM_P1;HPM_P2
2023/09/08 00:01:11;;;;;;;0.00;0.00;;;;;;;15.64;100.00;101533.06;5092611;28;20077;-45
2023/09/08 00:03:36;;;;;;;0.10;0.10;;;;;;;15.60;100.00;101528.66;5093876;28;20484;-46
2023/09/08 00:06:02;;;;;;;0.10;0.10;;;;;;;15.65;100.00;101527.03;5093599;28;20028;-45
2023/09/08 00:08:27;;;;;;;0.10;0.10;;;;;;;15.62;100.00;101521.75;5092397;28;20537;-45
2023/09/08 00:10:52;;;;;;;0.00;0.00;;;;;;;15.60;100.00;101523.47;5093489;28;20024;-46
2023/09/08 00:13:18;;;;;;;0.10;0.10;;;;;;;15.53;100.00;101526.78;5093133;28;20012;-47
2023/09/08 00:15:43;;;;;;;0.10;0.10;;;;;;;15.51;100.00;101529.34;5092629;28;20039;-46
2023/09/08 00:18:08;;;;;;;0.10;0.10;;;;;;;15.51;100.00;101526.75;5093594;28;20015;-46
2023/09/08 00:20:34;;;;;;;0.10;0.10;;;;;;;15.46;100.00;101531.84;5093066;28;20024;-49
2023/09/08 00:22:59;;;;;;;0.10;0.10;;;;;;;15.48;100.00;101532.75;5092436;28;20048;-50
2023/09/08 00:25:25;;;;;;;0.10;0.10;;;;;;;15.48;100.00;101534.50;5092970;28;20460;-47
2023/09/08 00:27:50;;;;;;;0.00;0.00;;;;;;;15.38;100.00;101533.41;5092979;28;20026;-46
2023/09/08 00:30:15;;;;;;;0.10;0.10;;;;;;;15.41;100.00;101536.06;5092247;28;20032;-48
2023/09/08 00:32:41;;;;;;;0.10;0.10;;;;;;;15.37;100.00;101539.44;5093329;28;20020;-49
2023/09/08 00:35:09;;;;;;;0.10;0.10;;;;;;;15.36;100.00;101535.09;5092672;28;20047;-46
2023/09/08 00:37:34;;;;;;;0.10;0.10;;;;;;;15.31;100.00;101526.31;5092811;28;20518;-46
2023/09/08 00:40:00;;;;;;;0.03;0.03;;;;;;;15.28;100.00;101532.34;5093199;28;20055;-46
2023/09/08 00:42:25;;;;;;;0.10;0.10;;;;;;;15.31;100.00;101536.72;5091992;28;20012;-45
2023/09/08 00:44:50;;;;;;;0.10;0.10;;;;;;;15.34;100.00;101535.91;5092931;28;20426;-47
2023/09/08 00:47:16;;;;;;;0.10;0.10;;;;;;;15.38;100.00;101535.16;5092792;28;20067;-45
2023/09/08 00:49:41;;;;;;;0.10;0.10;;;;;;;15.34;100.00;101526.41;5092037;28;20032;-45
2023/09/08 00:52:07;;;;;;;0.10;0.10;;;;;;;15.27;100.00;101529.72;5093032;28;20043;-46
2023/09/08 00:54:32;;;;;;;0.10;0.10;;;;;;;15.19;100.00;101523.50;5092727;28;20468;-45
2023/09/08 00:57:01;;;;;;;0.00;0.00;;;;;;;15.18;100.00;101529.53;5091930;28;20040;-47
2023/09/08 00:59:27;;;;;;;0.10;0.10;;;;;;;15.23;100.00;101527.91;5092434;28;20020;-45
2023/09/08 01:01:52;;;;;;;0.10;0.10;;;;;;;15.20;100.00;101527.84;5093036;28;20161;-44
2023/09/08 01:04:18;;;;;;;0.10;0.10;;;;;;;15.19;100.00;101520.91;5092000;28;20099;-47
2023/09/08 01:06:45;;;;;;;0.10;0.10;;;;;;;15.21;100.00;101524.38;5093110;28;20028;-46
2023/09/08 01:09:11;;;;;;;0.10;0.10;;;;;;;15.18;100.00;101525.19;5092738;28;20035;-45
2023/09/08 01:11:37;;;;;;;0.10;0.10;;;;;;;15.16;100.00;101526.91;5091863;28;20046;-46
2023/09/08 01:14:02;;;;;;;0.10;0.10;;;;;;;15.17;100.00;101523.47;5092656;28;20402;-47
2023/09/08 01:16:27;;;;;;;0.10;0.10;;;;;;;15.11;100.00;101519.00;5092574;28;20471;-46
2023/09/08 01:18:55;;;;;;;0.10;0.10;;;;;;;15.12;100.00;101525.94;5091892;28;20081;-44
2023/09/08 01:21:58;;;;;;;0.10;0.10;;;;;;;15.20;100.00;101522.66;5092441;28;20016;-44
2023/09/08 01:24:26;;;;;;;0.10;0.10;;;;;;;15.15;100.00;101531.19;5091563;28;20016;-45
2023/09/08 01:26:53;;;;;;;0.05;0.05;;;;;;;15.14;100.00;101524.28;5092781;28;20029;-50
2023/09/08 01:29:19;;;;;;;0.10;0.10;;;;;;;15.11;100.00;101529.38;5092399;28;20056;-45
2023/09/08 01:31:45;;;;;;;0.10;0.10;;;;;;;15.02;100.00;101529.19;5091681;28;20533;-47
2023/09/08 01:34:12;;;;;;;0.10;0.10;;;;;;;15.07;100.00;101531.91;5092569;28;20028;-46
2023/09/08 01:36:37;;;;;;;0.10;0.10;;;;;;;15.06;100.00;101532.72;5092617;28;20028;-49
2023/09/08 01:39:02;;;;;;;0.05;0.05;;;;;;;15.01;100.00;101529.16;5091741;28;20153;-48
2023/09/08 01:41:28;;;;;;;0.10;0.10;;;;;;;15.01;100.00;101523.97;5092399;28;20040;-45
2023/09/08 01:43:54;;;;;;;0.10;0.10;;;;;;;15.01;100.00;101523.97;5092389;28;20050;-50
2023/09/08 01:46:20;;;;;;;0.10;0.10;;;;;;;14.98;100.00;101530.81;5091467;28;20027;-45
2023/09/08 01:48:45;;;;;;;0.10;0.10;;;;;;;15.00;100.00;101530.84;5092298;28;20032;-45
2023/09/08 01:51:10;;;;;;;0.10;0.10;;;;;;;14.96;100.00;101526.44;5092523;28;20031;-45
2023/09/08 01:53:36;;;;;;;0.00;0.00;;;;;;;14.92;100.00;101527.22;5091207;28;20032;-45
2023/09/08 01:56:01;;;;;;;0.10;0.10;;;;;;;14.90;100.00;101528.91;5092267;28;20507;-47
2023/09/08 01:58:26;;;;;;;0.10;0.10;;;;;;;14.84;100.00;101529.66;5092505;28;20036;-45
2023/09/08 02:00:51;;;;;;;0.00;0.00;;;;;;;14.77;100.00;101522.53;5095271;28;20020;-46
2023/09/08 02:03:17;;;;;;;0.10;0.10;;;;;;;14.76;100.00;101519.09;5095642;28;20099;-45
2023/09/08 02:05:43;;;;;;;0.10;0.10;;;;;;;14.70;100.00;101520.66;5095841;28;20099;-46
2023/09/08 02:08:08;;;;;;;0.00;0.00;;;;;;;14.66;100.00;101519.72;5095016;28;20107;-47
2023/09/08 02:10:33;;;;;;;0.10;0.10;;;;;;;14.67;100.00;101521.47;5095633;28;20039;-46
2023/09/08 02:12:59;;;;;;;0.10;0.10;;;;;;;14.62;100.00;101517.88;5095933;28;20479;-46
2023/09/08 02:15:24;;;;;;;0.00;0.00;;;;;;;14.61;100.00;101523.88;5094636;28;20028;-46
2023/09/08 02:17:53;;;;;;;0.13;0.13;;;;;;;14.52;100.00;101527.13;5096013;28;20524;-50
2023/09/08 02:20:18;;;;;;;0.10;0.10;;;;;;;14.48;100.00;101520.97;5095285;28;20032;-46
2023/09/08 02:22:43;;;;;;;0.10;0.10;;;;;;;14.47;100.00;101519.25;5094732;28;20035;-45
2023/09/08 02:25:09;;;;;;;0.10;0.10;;;;;;;14.45;100.00;101515.72;5095758;28;20428;-46
2023/09/08 02:27:34;;;;;;;0.10;0.10;;;;;;;14.40;100.00;101512.16;5094407;28;20432;-47
2023/09/08 02:29:59;;;;;;;0.10;0.10;;;;;;;14.44;100.00;101508.78;5095375;28;20028;-46
2023/09/08 02:32:24;;;;;;;0.10;0.10;;;;;;;14.41;100.00;101519.09;5095040;28;20024;-46
2023/09/08 02:34:50;;;;;;;0.10;0.10;;;;;;;14.40;100.00;101512.16;5094506;28;20024;-46
2023/09/08 02:37:15;;;;;;;0.10;0.10;;;;;;;14.33;100.00;101502.44;5094840;28;20032;-46
2023/09/08 02:39:40;;;;;;;0.10;0.10;;;;;;;14.30;100.00;101502.38;5095103;28;20023;-45
2023/09/08 02:42:06;;;;;;;0.10;0.10;;;;;;;14.31;100.00;101498.97;5094560;28;20486;-46
2023/09/08 02:44:32;;;;;;;0.10;0.10;;;;;;;14.18;100.00;101508.16;5095077;28;20036;-46
2023/09/08 02:46:57;;;;;;;0.10;0.10;;;;;;;14.19;100.00;101512.50;5095550;28;20028;-46
2023/09/08 02:49:22;;;;;;;0.10;0.10;;;;;;;14.13;100.00;101512.34;5093970;28;20429;-45
2023/09/08 02:51:48;;;;;;;0.10;0.10;;;;;;;14.19;100.00;101509.00;5094983;28;20024;-46
2023/09/08 02:54:13;;;;;;;0.00;0.00;;;;;;;14.15;100.00;101506.34;5094695;28;20468;-45
2023/09/08 02:56:38;;;;;;;0.10;0.10;;;;;;;14.14;100.00;101520.16;5093920;28;20048;-46
2023/09/08 02:59:04;;;;;;;0.10;0.10;;;;;;;14.11;100.00;101514.91;5094827;28;20024;-47
2023/09/08 03:01:29;;;;;;;0.00;0.00;;;;;;;14.11;100.00;101512.31;5094421;28;20028;-47
2023/09/08 03:03:54;;;;;;;0.10;0.10;;;;;;;14.09;100.00;101515.69;5094017;28;20020;-48
2023/09/08 03:06:20;;;;;;;0.10;0.10;;;;;;;14.09;100.00;101516.56;5094297;28;20035;-45
2023/09/08 03:08:46;;;;;;;0.10;0.10;;;;;;;14.11;100.00;101509.72;5094815;28;20107;-49
2023/09/08 03:11:12;;;;;;;0.10;0.10;;;;;;;14.13;100.00;101507.16;5092583;28;20107;-45
2023/09/08 03:13:37;;;;;;;0.10;0.10;;;;;;;14.11;100.00;101507.13;5094690;28;20035;-47
2023/09/08 03:16:05;;;;;;;0.10;0.10;;;;;;;14.06;100.00;101516.50;5094668;28;20016;-46
2023/09/08 03:18:32;;;;;;;0.10;0.10;;;;;;;14.04;100.00;101507.78;5093392;28;20387;-51
2023/09/08 03:20:58;;;;;;;0.10;0.10;;;;;;;13.93;100.00;101514.41;5094365;28;20406;-46
2023/09/08 03:23:23;;;;;;;0.10;0.10;;;;;;;13.89;100.00;101508.28;5094264;28;20049;-45
2023/09/08 03:25:49;;;;;;;0.10;0.10;;;;;;;13.86;100.00;101509.91;5093762;28;20032;-46
2023/09/08 03:28:14;;;;;;;0.10;0.10;;;;;;;13.91;100.00;101513.50;5093987;28;20024;-50
2023/09/08 03:30:40;;;;;;;0.10;0.10;;;;;;;13.84;100.00;101509.88;5094151;28;20024;-48
2023/09/08 03:33:05;;;;;;;0.10;0.10;;;;;;;13.86;100.00;101512.50;5093461;28;20020;-47
2023/09/08 03:35:30;;;;;;;0.10;0.10;;;;;;;13.83;100.00;101503.78;5093873;28;20085;-49
2023/09/08 03:37:56;;;;;;;0.10;0.10;;;;;;;13.84;100.00;101499.50;5093474;28;20081;-47
2023/09/08 03:40:21;;;;;;;0.10;0.10;;;;;;;13.79;100.00;101512.34;5093913;28;20387;-45
2023/09/08 03:42:46;;;;;;;0.10;0.10;;;;;;;13.75;100.00;101500.13;5094196;28;20039;-46
2023/09/08 03:45:12;;;;;;;0.10;0.10;;;;;;;13.75;100.00;101500.13;5092926;28;20028;-45
2023/09/08 03:47:37;;;;;;;0.10;0.10;;;;;;;13.73;100.00;101498.34;5093910;28;20028;-47
2023/09/08 03:50:02;;;;;;;0.10;0.10;;;;;;;13.70;100.00;101496.53;5093853;28;20020;-46
2023/09/08 03:52:28;;;;;;;0.10;0.10;;;;;;;13.73;100.00;101493.16;5093377;28;20111;-47
2023/09/08 03:54:53;;;;;;;0.10;0.10;;;;;;;13.69;100.00;101489.59;5093716;28;20089;-46
2023/09/08 03:57:18;;;;;;;0.10;0.10;;;;;;;13.68;100.00;101493.03;5093665;28;20043;-46
2023/09/08 03:59:44;;;;;;;0.10;0.10;;;;;;;13.70;100.00;101491.38;5093046;28;20026;-47
2023/09/08 04:02:09;;;;;;;0.10;0.10;;;;;;;13.66;100.00;101490.41;5093583;28;20046;-45
2023/09/08 04:04:34;;;;;;;0.10;0.10;;;;;;;13.69;100.00;101491.31;5093301;28;20039;-45
2023/09/08 04:07:00;;;;;;;0.03;0.03;;;;;;;13.62;100.00;101498.03;5092778;28;20027;-44
2023/09/08 04:09:25;;;;;;;0.10;0.10;;;;;;;13.65;100.00;101492.94;5092986;28;20046;-49
2023/09/08 04:11:51;;;;;;;0.10;0.10;;;;;;;13.65;100.00;101492.94;5093572;28;20028;-46
2023/09/08 04:14:16;;;;;;;0.10;0.10;;;;;;;13.61;100.00;101493.72;5092366;28;20028;-45
2023/09/08 04:16:44;;;;;;;0.00;0.00;;;;;;;13.59;100.00;101485.00;5093488;28;20020;-49
2023/09/08 04:19:09;;;;;;;0.00;0.00;;;;;;;13.59;100.00;101495.38;5093278;28;20106;-49
2023/09/08 04:21:35;;;;;;;0.10;0.10;;;;;;;13.64;100.00;101491.19;5092168;28;20102;-44
2023/09/08 04:24:00;;;;;;;0.10;0.10;;;;;;;13.55;100.00;101488.34;5093517;28;20024;-46
2023/09/08 04:26:26;;;;;;;0.10;0.10;;;;;;;13.63;100.00;101486.84;5093160;28;20102;-45
2023/09/08 04:28:51;;;;;;;0.10;0.10;;;;;;;13.71;100.00;101481.88;5092432;28;20031;-48
2023/09/08 04:31:18;;;;;;;0.10;0.10;;;;;;;13.67;100.00;101480.91;5093023;28;20528;-45
2023/09/08 04:33:43;;;;;;;0.10;0.10;;;;;;;13.59;100.00;101482.41;5093202;28;20024;-48
2023/09/08 04:36:10;;;;;;;0.10;0.10;;;;;;;13.61;100.00;101478.16;5092338;28;20028;-45
2023/09/08 04:38:36;;;;;;;0.10;0.10;;;;;;;13.60;100.00;101484.19;5092815;28;20467;-48
2023/09/08 04:41:01;;;;;;;0.10;0.10;;;;;;;13.53;100.00;101483.13;5093002;28;20054;-47
2023/09/08 04:43:26;;;;;;;0.10;0.10;;;;;;;13.54;100.00;101478.81;5092243;28;20020;-47
2023/09/08 04:45:52;;;;;;;0.10;0.10;;;;;;;13.46;100.00;101483.78;5093021;28;20460;-45
2023/09/08 04:48:17;;;;;;;0.10;0.10;;;;;;;13.50;100.00;101489.09;5091736;28;20059;-45
2023/09/08 04:50:42;;;;;;;0.10;0.10;;;;;;;13.57;100.00;101482.38;5093089;28;20020;-45
2023/09/08 04:53:08;;;;;;;0.10;0.10;;;;;;;13.49;100.00;101487.34;5093001;28;20047;-46
2023/09/08 04:55:33;;;;;;;0.10;0.10;;;;;;;13.51;100.00;101487.38;5091787;28;20044;-47
2023/09/08 04:57:58;;;;;;;0.10;0.10;;;;;;;13.57;100.00;101484.06;5092983;28;20020;-46
2023/09/08 05:00:23;;;;;;;0.10;0.10;;;;;;;13.56;100.00;101487.53;5092529;28;20043;-48
2023/09/08 05:02:49;;;;;;;0.10;0.10;;;;;;;13.53;100.00;101490.00;5092092;28;20103;-45
2023/09/08 05:05:14;;;;;;;0.10;0.10;;;;;;;13.60;100.00;101489.34;5092358;28;20036;-45
2023/09/08 05:07:39;;;;;;;0.10;0.10;;;;;;;13.52;100.00;101490.84;5092971;28;20020;-44
2023/09/08 05:10:05;;;;;;;0.10;0.10;;;;;;;13.60;100.00;101492.81;5092037;28;20028;-44
2023/09/08 05:12:30;;;;;;;0.10;0.10;;;;;;;13.56;100.00;101487.53;5092615;28;20043;-46
2023/09/08 05:14:59;;;;;;;0.10;0.10;;;;;;;13.60;100.00;101486.75;5092855;28;20035;-44
2023/09/08 05:17:25;;;;;;;0.10;0.10;;;;;;;13.62;100.00;101487.66;5091765;28;20020;-44
2023/09/08 05:19:51;;;;;;;0.10;0.10;;;;;;;13.63;100.00;101492.03;5092625;28;20162;-44
2023/09/08 05:22:17;;;;;;;0.10;0.10;;;;;;;13.77;100.00;101501.03;5092609;28;20024;-45
2023/09/08 05:24:42;;;;;;;0.10;0.10;;;;;;;13.73;100.00;101501.78;5092004;28;20024;-44
2023/09/08 05:27:07;;;;;;;0.10;0.10;;;;;;;13.76;100.00;101501.00;5092874;28;20036;-47
2023/09/08 05:29:33;;;;;;;0.10;0.10;;;;;;;13.83;100.00;101496.03;5092352;28;20379;-45
2023/09/08 05:31:58;;;;;;;0.10;0.10;;;;;;;13.82;100.00;101496.84;5091676;28;20158;-44
2023/09/08 05:34:23;;;;;;;0.10;0.10;;;;;;;13.92;100.00;101499.72;5094056;28;20487;-44
2023/09/08 05:36:49;;;;;;;0.10;0.10;;;;;;;13.99;100.00;101499.03;5096368;28;20025;-45
2023/09/08 05:39:15;;;;;;;0.10;0.10;;;;;;;14.00;100.00;101500.78;5095553;28;20024;-44
2023/09/08 05:41:40;;;;;;;0.10;0.10;;;;;;;14.10;100.00;101502.78;5096542;28;20050;-44
2023/09/08 05:44:05;;;;;;;0.10;0.10;;;;;;;14.09;100.00;101506.19;5096583;28;20024;-44
2023/09/08 05:46:31;;;;;;;0.10;0.10;;;;;;;14.23;100.00;101503.06;5095286;28;20051;-45
2023/09/08 05:48:56;;;;;;;0.10;0.10;;;;;;;14.25;100.00;101512.63;5095993;28;20486;-47
2023/09/08 05:51:22;;;;;;;0.10;0.10;;;;;;;14.33;100.00;101505.94;5095847;28;20052;-45
2023/09/08 05:53:47;;;;;;;0.10;0.10;;;;;;;14.43;100.00;101512.22;5095868;28;20081;-46
2023/09/08 05:56:13;;;;;;;0.03;0.03;;;;;;;14.51;100.00;101516.72;5095512;28;20489;-44
2023/09/08 05:58:38;;;;;;;0.10;0.10;;;;;;;14.65;100.00;101517.94;5095306;28;20023;-44
2023/09/08 06:01:04;;;;;;;0.10;0.10;;;;;;;14.68;100.00;101514.56;5095996;28;20050;-45
2023/09/08 06:03:30;;;;;;;0.10;0.10;;;;;;;14.86;100.00;101512.41;5095633;28;20127;-45
2023/09/08 06:05:56;;;;;;;0.10;0.10;;;;;;;14.86;100.00;101516.69;5095211;28;20394;-46
2023/09/08 06:08:22;;;;;;;0.10;0.10;;;;;;;14.92;100.00;101516.84;5095715;28;20081;-47
2023/09/08 06:10:47;;;;;;;0.10;0.10;;;;;;;15.12;100.00;101515.56;5095819;28;20451;-47
2023/09/08 06:13:12;;;;;;;0.17;0.17;;;;;;;15.23;100.00;101523.56;5094656;28;20024;-44
2023/09/08 06:15:38;;;;;;;0.00;0.00;;;;;;;15.28;100.00;101521.06;5095777;28;20016;-49
2023/09/08 06:18:03;;;;;;;0.10;0.10;;;;;;;15.41;100.00;101520.47;5095622;28;20024;-46
2023/09/08 06:20:29;;;;;;;0.10;0.10;;;;;;;15.58;100.00;101519.94;5094642;28;20111;-48
2023/09/08 06:22:54;;;;;;;0.10;0.10;;;;;;;15.60;100.00;101519.13;5095644;28;20097;-50
2023/09/08 06:25:19;;;;;;;0.00;0.00;;;;;;;15.76;100.00;101525.53;5095417;28;20536;-44
2023/09/08 06:27:45;;;;;;;0.10;0.10;;;;;;;15.85;100.00;101518.75;5094690;28;20031;-45
2023/09/08 06:30:13;;;;;;;0.10;0.10;;;;;;;16.04;100.00;101519.97;5095450;28;20032;-48
2023/09/08 06:32:38;;;;;;;0.05;0.05;;;;;;;16.25;100.00;101529.88;5095487;28;20568;-45
2023/09/08 06:35:04;;;;;;;0.00;0.00;;;;;;;16.42;100.00;101531.03;5094736;28;20028;-45
2023/09/08 06:37:35;;;;;;;0.10;0.10;;;;;;;16.54;100.00;101532.97;5094886;28;20028;-45
2023/09/08 06:40:01;;;;;;;0.00;0.00;;;;;;;16.73;100.00;101528.03;5095379;28;20020;-48
2023/09/08 06:42:26;;;;;;;0.00;0.00;;;;;;;16.79;100.00;101522.91;5094119;28;20425;-45
2023/09/08 06:44:51;;;;;;;0.10;0.10;;;;;;;17.01;100.00;101524.13;5094841;28;20024;-47
2023/09/08 06:47:16;;;;;;;0.20;0.10;;;;;;;17.18;100.00;101526.94;5094717;28;20016;-46
2023/09/08 06:49:42;;;;;;;0.10;0.10;;;;;;;17.30;100.00;101526.25;5094356;28;20121;-50
2023/09/08 06:52:07;;;;;;;0.00;0.00;;;;;;;17.51;100.00;101532.59;5095291;28;20028;-47
2023/09/08 06:54:32;;;;;;;0.10;0.10;;;;;;;17.64;100.00;101539.69;5094572;28;20024;-45
2023/09/08 06:56:58;;;;;;;0.08;0.08;;;;;;;17.80;100.00;101545.06;5094011;28;20036;-44
2023/09/08 06:59:23;;;;;;;0.00;0.00;;;;;;;18.00;100.00;101546.19;5094521;28;20044;-44
2023/09/08 07:01:48;;;;;;;0.10;0.10;;;;;;;18.17;100.00;101542.88;5093867;28;20039;-47
2023/09/08 07:04:13;;;;;;;0.08;0.08;;;;;;;18.32;100.00;101550.84;5094734;28;20028;-44
2023/09/08 07:06:41;;;;;;;0.03;0.03;;;;;;;18.43;100.00;101550.91;5094943;28;20051;-47
2023/09/08 07:09:07;;;;;;;0.00;0.00;;;;;;;18.58;100.00;101545.81;5093771;28;20537;-48
2023/09/08 07:11:32;;;;;;;0.00;0.00;;;;;;;18.65;100.00;101541.50;5094371;28;20111;-50
2023/09/08 07:13:57;;;;;;;0.10;0.10;;;;;;;18.81;100.00;101552.06;5094470;28;20066;-50
2023/09/08 07:16:22;;;;;;;0.00;0.00;;;;;;;18.96;100.00;101551.34;5093222;28;20028;-49
2023/09/08 07:18:48;;;;;;;0.10;0.10;;;;;;;19.08;100.00;101543.56;5094653;28;20016;-44
2023/09/08 07:21:13;;;;;;;0.00;0.00;;;;;;;19.25;100.00;101548.88;5094320;28;20016;-45
2023/09/08 07:23:39;;;;;;;0.00;0.00;;;;;;;19.36;100.00;101549.78;5093537;28;20423;-46
2023/09/08 07:26:04;;;;;;;0.00;0.00;;;;;;;19.51;100.00;101554.22;5094444;28;20024;-45
2023/09/08 07:28:30;;;;;;;0.00;0.00;;;;;;;19.62;100.00;101546.41;5093894;28;20028;-49
2023/09/08 07:31:01;;;;;;;0.10;0.10;;;;;;;19.84;100.00;101554.34;5093402;28;20020;-48
2023/09/08 07:33:27;;;;;;;0.00;0.00;;;;;;;19.98;100.00;101546.53;5094018;28;20034;-44
2023/09/08 07:35:52;;;;;;;0.00;0.00;;;;;;;20.13;100.00;101557.03;5094629;28;20024;-48
2023/09/08 07:38:17;;;;;;;0.00;0.00;;;;;;;20.31;100.00;101556.16;5093119;28;20020;-47
2023/09/08 07:40:43;;;;;;;0.00;0.00;;;;;;;20.30;100.00;101557.03;5094320;28;20110;-44
2023/09/08 07:43:08;;;;;;;0.00;0.00;;;;;;;20.48;100.00;101552.69;5094484;28;20031;-49
2023/09/08 07:45:33;;;;;;;0.00;0.00;;;;;;;20.65;100.00;101550.06;5092810;28;20110;-46
2023/09/08 07:47:59;;;;;;;0.00;0.00;;;;;;;20.79;100.00;101552.69;5094098;28;20085;-47
2023/09/08 07:50:27;;;;;;;0.00;0.00;;;;;;;20.87;100.00;101545.69;5093721;28;20095;-46
2023/09/08 07:52:55;;;;;;;0.00;0.00;;;;;;;20.99;100.00;101552.63;5093199;28;20024;-46
2023/09/08 07:55:27;;;;;;;0.10;0.10;;;;;;;21.20;100.00;101555.19;5093360;28;20044;-48
2023/09/08 07:57:53;;;;;;;0.00;0.00;;;;;;;21.43;100.00;101559.47;5093205;28;20028;-47
2023/09/08 08:00:19;;;;;;;0.00;0.00;;;;;;;21.62;98.44;101554.19;5093010;28;20031;-44
2023/09/08 08:02:49;;;;;;;0.00;0.00;;;;;;;21.72;95.55;101555.88;5093842;28;20020;-46
2023/09/08 08:05:15;;;;;;;0.00;0.00;;;;;;;21.83;97.24;101550.56;5092515;28;20390;-50
2023/09/08 08:07:42;;;;;;;0.00;0.00;;;;;;;21.94;96.25;101543.50;5093759;28;20020;-47
2023/09/08 08:10:07;;;;;;;0.00;0.00;;;;;;;22.13;96.05;101540.72;5093674;28;20031;-46
2023/09/08 08:12:32;;;;;;;0.00;0.00;;;;;;;22.24;94.14;101546.78;5092469;28;20028;-50
2023/09/08 08:14:58;;;;;;;0.00;0.00;;;;;;;22.30;93.28;101543.25;5093667;28;20106;-45
2023/09/08 08:17:25;;;;;;;0.00;0.00;;;;;;;22.40;92.51;101546.69;5093302;28;20091;-46
2023/09/08 08:19:50;;;;;;;0.00;0.00;;;;;;;22.56;94.38;101556.19;5092765;28;20048;-45
2023/09/08 08:22:16;;;;;;;0.00;0.00;;;;;;;22.63;91.48;101550.00;5093103;28;20419;-44
2023/09/08 08:24:41;;;;;;;0.00;0.00;;;;;;;22.79;91.31;101555.97;5093312;28;20024;-44
2023/09/08 08:27:06;;;;;;;0.00;0.00;;;;;;;22.91;92.58;101562.84;5092414;28;20337;-46
2023/09/08 08:29:32;;;;;;;0.00;0.00;;;;;;;23.02;90.12;101553.09;5093023;28;20042;-46
2023/09/08 08:31:57;;;;;;;0.00;0.00;;;;;;;23.15;89.82;101547.69;5093400;28;20051;-46
2023/09/08 08:34:23;;;;;;;0.00;0.00;;;;;;;23.25;89.00;101561.63;5092211;28;20051;-47
2023/09/08 08:36:48;;;;;;;0.00;0.00;;;;;;;23.44;91.61;101559.66;5093272;28;20032;-45
2023/09/08 08:39:13;;;;;;;0.00;0.00;;;;;;;23.58;89.07;101557.69;5092886;28;20024;-50
2023/09/08 08:41:40;;;;;;;0.00;0.00;;;;;;;23.73;87.44;101566.28;5092327;28;20086;-45
2023/09/08 08:44:07;;;;;;;0.00;0.00;;;;;;;23.80;85.70;101563.53;5092988;28;20099;-49
2023/09/08 08:46:33;;;;;;;0.00;0.00;;;;;;;23.86;83.65;101562.59;5092942;28;20103;-45
2023/09/08 08:49:02;;;;;;;0.00;0.00;;;;;;;23.90;86.09;101566.94;5092113;28;20475;-46
2023/09/08 08:51:30;;;;;;;0.00;0.00;;;;;;;24.12;85.56;101564.00;5092712;28;20028;-47
2023/09/08 08:53:55;;;;;;;0.00;0.00;;;;;;;24.18;81.82;101558.59;5093076;28;20080;-45
2023/09/08 08:56:21;;;;;;;0.00;0.00;;;;;;;24.35;83.54;101558.38;5091511;28;20119;-45
2023/09/08 08:58:48;;;;;;;0.00;0.00;;;;;;;24.45;83.88;101556.41;5092884;28;20382;-45
2023/09/08 09:01:19;;;;;;;0.00;0.00;;;;;;;24.64;84.31;101552.59;5092724;28;20024;-45
2023/09/08 09:03:48;;;;;;;0.00;0.00;;;;;;;24.68;80.50;101555.19;5092897;28;20024;-47
2023/09/08 09:06:14;;;;;;;0.00;0.00;;;;;;;24.80;79.96;101562.84;5092570;28;20027;-50
2023/09/08 09:08:43;;;;;;;0.00;0.00;;;;;;;24.94;79.37;101557.34;5094433;28;20432;-45
2023/09/08 09:11:08;;;;;;;0.00;0.00;;;;;;;25.17;78.59;101553.38;5096894;28;20028;-45
2023/09/08 09:13:34;;;;;;;0.00;0.00;;;;;;;25.26;76.27;101553.19;5096828;28;20077;-46
2023/09/08 09:16:00;;;;;;;0.00;0.00;;;;;;;25.39;76.90;101557.34;5096279;28;20387;-46
2023/09/08 09:18:26;;;;;;;0.00;0.00;;;;;;;25.83;72.78;101557.25;5096567;28;20078;-47
2023/09/08 09:20:56;;;;;;;0.00;0.00;;;;;;;25.86;75.78;101559.84;5096906;28;20028;-48
2023/09/08 09:23:32;;;;;;;0.00;0.00;;;;;;;25.97;74.86;101560.44;5095647;28;20024;-46
2023/09/08 09:25:59;;;;;;;0.00;0.00;;;;;;;26.03;70.71;101563.84;5096861;28;20050;-46
2023/09/08 09:28:25;;;;;;;0.00;0.00;;;;;;;26.33;71.42;101562.25;5096521;28;20020;-45
2023/09/08 09:30:54;;;;;;;0.00;0.00;;;;;;;26.49;71.65;101557.44;5095833;28;20085;-46
2023/09/08 09:33:20;;;;;;;0.00;0.00;;;;;;;26.89;70.60;101556.41;5096397;28;20028;-51
2023/09/08 09:35:48;;;;;;;0.00;0.00;;;;;;;27.10;71.99;101560.25;5096482;28;20038;-45
2023/09/08 09:38:14;;;;;;;0.00;0.00;;;;;;;27.24;66.36;101556.31;5095236;28;20277;-48
2023/09/08 09:40:39;;;;;;;0.00;0.00;;;;;;;27.35;66.78;101554.25;5096545;28;20032;-46
2023/09/08 09:43:07;;;;;;;0.00;0.00;;;;;;;27.38;63.65;101563.88;5096393;28;20434;-51
2023/09/08 09:45:36;;;;;;;0.00;0.00;;;;;;;27.41;63.25;101563.78;5095294;28;20047;-48
2023/09/08 09:48:05;;;;;;;0.00;0.00;;;;;;;27.91;61.39;101557.88;5096429;28;20020;-50
2023/09/08 09:50:39;;;;;;;0.00;0.00;;;;;;;28.38;59.71;101567.84;5095347;28;20028;-46
2023/09/08 09:53:12;;;;;;;0.00;0.00;;;;;;;28.66;56.70;101561.63;5096415;28;20024;-50
2023/09/08 09:55:39;;;;;;;0.00;0.00;;;;;;;29.18;58.47;101559.75;5096031;28;20047;-46
2023/09/08 09:58:05;;;;;;;;;;;;;;;29.87;60.54;101563.31;5095606;28;20027;-45
2023/09/08 10:00:33;;;;;;;0.00;0.00;;;;;;;30.18;50.89;101562.09;5095627;28;20422;-47
2023/09/08 10:02:58;;;;;;;0.00;0.00;;;;;;;30.17;50.40;101563.88;5096203;28;20035;-46
2023/09/08 10:05:24;;;;;;;0.00;0.00;;;;;;;30.41;49.00;101563.78;5095062;28;20020;-48
2023/09/08 10:07:50;;;;;;;0.00;0.00;;;;;;;30.75;48.41;101557.03;5096078;28;20024;-48
2023/09/08 10:10:17;;;;;;;0.00;0.00;;;;;;;31.78;45.76;101559.44;5095453;28;20489;-48
2023/09/08 10:12:49;;;;;;;0.00;0.00;;;;;;;31.59;45.46;101564.75;5094926;28;20028;-48
2023/09/08 10:15:20;;;;;;;0.00;0.00;;;;;;;32.03;43.79;101563.53;5095497;28;20032;-51
2023/09/08 10:17:52;;;;;;;0.00;0.00;;;;;;;32.31;43.22;101563.06;5095685;28;20034;-51
2023/09/08 10:20:21;;;;;;;0.00;0.00;;;;;;;32.58;42.17;101569.72;5094032;28;20031;-51
2023/09/08 10:22:54;;;;;;;0.00;0.00;;;;;;;32.88;42.06;101559.25;5095719;28;20050;-51
2023/09/08 10:25:20;;;;;;;0.00;0.00;;;;;;;32.40;41.41;101561.72;5095333;28;20028;-49
2023/09/08 10:27:47;;;;;;;0.00;0.00;;;;;;;32.62;41.43;101560.63;5094760;28;20101;-46
2023/09/08 10:30:14;;;;;;;0.00;0.00;;;;;;;32.72;41.22;101556.50;5094936;28;20024;-50
2023/09/08 10:32:41;;;;;;;0.00;0.00;;;;;;;32.86;39.59;101558.50;5095575;28;20048;-45
2023/09/08 10:35:07;;;;;;;0.00;0.00;;;;;;;33.52;40.08;101564.72;5095128;28;20024;-51
2023/09/08 10:37:32;;;;;;;0.00;0.00;;;;;;;33.40;39.49;101555.59;5095183;28;20020;-51
2023/09/08 10:40:19;;;;;;;0.00;0.00;;;;;;;34.02;40.46;101565.44;5094564;28;20153;-48
2023/09/08 10:42:45;;;;;;;0.00;0.00;;;;;;;33.83;38.99;101562.13;5095133;28;20066;-49
2023/09/08 10:45:20;;;;;;;0.00;0.00;;;;;;;34.38;39.15;101561.56;5095200;28;20016;-49
2023/09/08 10:47:45;;;;;;;0.00;0.00;;;;;;;34.57;36.85;101557.81;5094314;28;20387;-49
2023/09/08 10:50:18;;;;;;;0.00;0.00;;;;;;;35.13;37.39;101562.44;5095115;28;20483;-49
2023/09/08 10:53:03;;;;;;;0.00;0.00;;;;;;;35.44;37.77;101558.66;5095023;28;20020;-43
2023/09/08 10:55:37;;;;;;;0.00;0.00;;;;;;;35.59;37.09;101554.97;5093910;28;20036;-49
2023/09/08 10:58:04;;;;;;;0.00;0.00;;;;;;;35.01;36.78;101558.72;5095076;28;20051;-49
2023/09/08 11:00:43;;;;;;;0.00;0.00;;;;;;;35.03;36.84;101562.13;5094546;28;20457;-48
2023/09/08 11:03:08;;;;;;;0.00;0.00;;;;;;;34.50;37.38;101551.09;5094155;28;20031;-48
2023/09/08 11:05:34;;;;;;;0.00;0.00;;;;;;;34.41;36.76;101552.50;5094491;28;20024;-49
2023/09/08 11:07:59;;;;;;;0.00;0.00;;;;;;;34.15;37.47;101552.22;5094195;28;20020;-49
2023/09/08 11:10:25;;;;;;;0.00;0.00;;;;;;;34.39;37.01;101547.25;5094547;28;20071;-48
2023/09/08 11:12:51;;;;;;;0.00;0.00;;;;;;;34.36;37.81;101550.13;5094643;28;20106;-48
2023/09/08 11:15:16;;;;;;;0.00;0.00;;;;;;;33.92;38.05;101546.41;5093641;28;20047;-48